Time;durP1;ratioP1;P1;durP2;ratioP2;P2;SDS_P1;SDS_P2;PMS_P1;PMS_P2;Temp;Humidity;BMP_temperature;BMP_pressure;BME280_temperature;BME280_humidity;BME280_pressure;Samples;Min_cycle;Max_cycle;Signal;HPM_P1;HPM_P2
2022/01/11 00:01:00;;;;;;;26.08;11.70;;;1.80;99.90;;;;;;5008771;28;20043;-43
2022/01/11 00:03:25;;;;;;;26.27;12.07;;;1.80;99.90;;;;;;5008771;28;20030;-43
2022/01/11 00:05:59;;;;;;;22.08;11.88;;;1.70;99.90;;;;;;5009192;28;20036;-43
2022/01/11 00:08:32;;;;;;;19.17;11.73;;;1.70;99.90;;;;;;5007035;28;20105;-44
2022/01/11 00:11:04;;;;;;;20.30;11.90;;;1.70;99.90;;;;;;5009873;28;20021;-44
2022/01/11 00:13:35;;;;;;;21.70;12.57;;;1.70;99.90;;;;;;5009152;28;20478;-43
2022/01/11 00:16:01;;;;;;;27.77;11.50;;;1.70;99.90;;;;;;5008033;28;20542;-44
2022/01/11 00:18:27;;;;;;;27.65;11.98;;;1.70;99.90;;;;;;5008586;28;20045;-44
2022/01/11 00:20:54;;;;;;;24.25;12.15;;;1.60;99.90;;;;;;5007915;28;20135;-43
2022/01/11 00:25:48;;;;;;;25.20;12.13;;;1.60;99.90;;;;;;5008690;28;20081;-43
2022/01/11 00:28:16;;;;;;;22.52;12.13;;;1.60;99.90;;;;;;5008820;28;20053;-43
2022/01/11 00:30:44;;;;;;;25.40;10.45;;;1.50;99.90;;;;;;5007707;28;20105;-43
2022/01/11 00:33:17;;;;;;;25.65;11.32;;;1.50;99.90;;;;;;5008983;28;20022;-43
2022/01/11 00:35:46;;;;;;;17.85;11.40;;;1.60;99.90;;;;;;5008833;28;20029;-43
2022/01/11 00:38:15;;;;;;;20.50;11.18;;;1.50;99.90;;;;;;5009272;28;20033;-43
2022/01/11 00:40:45;;;;;;;26.88;12.60;;;1.60;99.90;;;;;;5009093;28;20021;-44
2022/01/11 00:43:11;;;;;;;21.45;12.82;;;1.60;99.90;;;;;;5005469;28;20042;-43
2022/01/11 00:45:37;;;;;;;25.05;12.13;;;1.60;99.90;;;;;;5008978;28;20058;-43
2022/01/11 00:48:02;;;;;;;18.50;11.38;;;1.60;99.90;;;;;;5008229;28;21400;-43
2022/01/11 00:50:28;;;;;;;20.08;11.60;;;1.60;99.90;;;;;;5008382;28;20156;-42
2022/01/11 00:52:54;;;;;;;22.85;11.80;;;1.60;99.90;;;;;;5008041;28;20092;-42
2022/01/11 00:55:19;;;;;;;19.05;10.50;;;1.50;99.90;;;;;;5008157;28;20025;-43
2022/01/11 00:57:45;;;;;;;22.10;11.98;;;1.60;99.90;;;;;;5007355;28;20101;-43
2022/01/11 01:00:11;;;;;;;18.60;11.85;;;1.50;99.90;;;;;;5008248;28;20030;-43
2022/01/11 01:02:41;;;;;;;27.50;12.68;;;1.50;99.90;;;;;;5007423;28;20010;-44
2022/01/11 01:05:07;;;;;;;21.25;11.82;;;1.50;99.90;;;;;;5007959;28;20030;-43
2022/01/11 01:07:33;;;;;;;20.85;12.82;;;1.50;99.90;;;;;;5007518;28;20516;-43
2022/01/11 01:10:03;;;;;;;19.42;12.18;;;1.50;99.90;;;;;;5006957;28;20038;-43
2022/01/11 01:12:33;;;;;;;20.83;11.35;;;1.50;99.90;;;;;;5007689;28;20093;-43
2022/01/11 01:14:59;;;;;;;23.92;12.27;;;1.50;99.90;;;;;;5007545;28;20081;-43
2022/01/11 01:17:26;;;;;;;30.38;14.00;;;1.50;99.90;;;;;;5007000;28;20026;-43
2022/01/11 01:19:52;;;;;;;21.40;12.90;;;1.50;99.90;;;;;;5007321;28;20107;-44
2022/01/11 01:22:17;;;;;;;23.08;14.30;;;1.50;99.90;;;;;;5008141;28;20022;-43
2022/01/11 01:24:43;;;;;;;30.15;12.93;;;1.50;99.90;;;;;;5006539;28;20122;-44
2022/01/11 01:27:09;;;;;;;19.77;11.88;;;1.50;99.90;;;;;;5007363;28;20026;-43
2022/01/11 01:29:40;;;;;;;24.00;12.70;;;1.40;99.90;;;;;;5007971;28;20022;-44
2022/01/11 01:32:10;;;;;;;22.10;11.88;;;1.40;99.90;;;;;;5007055;28;20109;-44
2022/01/11 01:34:36;;;;;;;25.60;10.93;;;1.40;99.90;;;;;;5007657;28;20470;-42
2022/01/11 01:37:02;;;;;;;24.75;12.02;;;1.40;99.90;;;;;;5008514;28;20056;-43
2022/01/11 01:39:28;;;;;;;23.88;11.23;;;1.40;99.90;;;;;;5007015;28;20037;-43
2022/01/11 01:41:54;;;;;;;28.98;12.07;;;1.40;99.90;;;;;;5008057;28;20039;-42
2022/01/11 01:44:20;;;;;;;20.83;11.18;;;1.40;99.90;;;;;;5007779;28;20042;-43
2022/01/11 01:46:46;;;;;;;15.45;9.50;;;1.40;99.90;;;;;;5006149;28;20488;-43
2022/01/11 01:49:17;;;;;;;15.30;10.13;;;1.40;99.90;;;;;;5007073;28;20037;-42
2022/01/11 01:51:44;;;;;;;20.85;11.43;;;1.40;99.90;;;;;;5008092;28;20035;-43
2022/01/11 01:54:11;;;;;;;25.48;11.70;;;1.50;99.90;;;;;;5006395;28;20216;-42
2022/01/11 01:56:37;;;;;;;18.88;11.80;;;1.50;99.90;;;;;;5007418;28;20025;-43
2022/01/11 01:59:04;;;;;;;24.52;11.45;;;1.50;99.90;;;;;;5007611;28;20058;-43
2022/01/11 02:01:32;;;;;;;23.48;11.95;;;1.50;99.90;;;;;;5007262;28;20072;-43
2022/01/11 02:03:58;;;;;;;19.02;11.93;;;1.50;99.90;;;;;;5006754;28;20482;-44
2022/01/11 02:06:24;;;;;;;22.45;13.02;;;1.50;99.90;;;;;;5007236;28;20076;-44
2022/01/11 02:08:50;;;;;;;20.02;12.82;;;1.50;99.90;;;;;;5007553;28;20021;-43
2022/01/11 02:11:21;;;;;;;21.40;11.70;;;1.50;99.90;;;;;;5007695;28;20469;-44
2022/01/11 02:13:48;;;;;;;25.63;12.55;;;1.50;99.90;;;;;;5007003;28;20022;-43
2022/01/11 02:16:22;;;;;;;21.08;12.50;;;1.50;99.90;;;;;;5007515;28;20452;-43
2022/01/11 02:18:48;;;;;;;24.45;13.63;;;1.50;99.90;;;;;;5007838;28;20033;-43
2022/01/11 02:21:14;;;;;;;21.20;11.80;;;1.60;99.90;;;;;;5006813;28;20105;-44
2022/01/11 02:23:40;;;;;;;20.60;12.15;;;1.60;99.90;;;;;;5008186;28;20120;-44
2022/01/11 02:26:06;;;;;;;23.52;11.93;;;1.60;99.90;;;;;;5007708;28;20069;-43
2022/01/11 02:28:32;;;;;;;21.92;12.73;;;1.60;99.90;;;;;;5007009;28;20030;-43
2022/01/11 02:31:01;;;;;;;21.95;12.20;;;1.60;99.90;;;;;;5007549;28;20105;-43
2022/01/11 02:33:36;;;;;;;22.55;13.23;;;1.60;99.90;;;;;;5007496;28;20032;-43
2022/01/11 02:36:05;;;;;;;21.48;12.38;;;1.60;99.90;;;;;;5005990;28;20030;-43
2022/01/11 02:38:32;;;;;;;24.05;13.10;;;1.60;99.90;;;;;;5006289;28;20054;-44
2022/01/11 02:40:58;;;;;;;20.48;12.38;;;1.60;99.90;;;;;;5006781;28;20030;-44
2022/01/11 02:43:24;;;;;;;24.10;13.80;;;1.60;99.90;;;;;;5006012;28;20564;-43
2022/01/11 02:46:00;;;;;;;22.73;12.75;;;1.50;99.90;;;;;;5006880;28;20048;-43
2022/01/11 02:48:26;;;;;;;21.05;13.02;;;1.60;99.90;;;;;;5006464;28;20072;-43
2022/01/11 02:50:51;;;;;;;23.02;13.13;;;1.60;99.90;;;;;;5006506;28;20026;-43
2022/01/11 02:53:18;;;;;;;21.38;12.57;;;1.60;99.90;;;;;;5006291;28;20054;-43
2022/01/11 02:55:44;;;;;;;26.00;12.77;;;1.50;99.90;;;;;;5009049;28;20073;-42
2022/01/11 02:58:10;;;;;;;18.30;12.05;;;1.50;99.90;;;;;;5009926;28;20188;-42
2022/01/11 03:00:38;;;;;;;24.17;13.65;;;1.50;99.90;;;;;;5010220;28;20053;-41
2022/01/11 03:03:23;;;;;;;23.85;13.52;;;1.50;99.90;;;;;;5009455;28;20421;-43
2022/01/11 03:05:56;;;;;;;25.48;15.38;;;1.50;99.90;;;;;;5009746;28;20495;-43
2022/01/11 03:08:24;;;;;;;24.58;15.50;;;1.50;99.90;;;;;;5010129;28;20018;-45
2022/01/11 03:10:50;;;;;;;24.98;14.75;;;1.50;99.90;;;;;;5008721;28;20476;-42
2022/01/11 03:13:17;;;;;;;22.52;13.98;;;1.50;99.90;;;;;;5010384;28;20044;-42
2022/01/11 03:15:44;;;;;;;21.05;13.70;;;1.40;99.90;;;;;;5009576;28;20022;-42
2022/01/11 03:18:10;;;;;;;20.83;12.52;;;1.40;99.90;;;;;;5008851;28;20028;-43
2022/01/11 03:20:36;;;;;;;22.75;13.15;;;1.50;99.90;;;;;;5010262;28;20382;-43
2022/01/11 03:23:03;;;;;;;21.27;12.65;;;1.50;99.90;;;;;;5008968;28;20026;-42
2022/01/11 03:25:29;;;;;;;23.60;13.40;;;1.40;99.90;;;;;;5009292;28;20040;-43
2022/01/11 03:27:55;;;;;;;19.52;11.93;;;1.50;99.90;;;;;;5009011;28;20022;-42
2022/01/11 03:30:20;;;;;;;21.63;13.00;;;1.50;99.90;;;;;;5009550;28;20022;-43
2022/01/11 03:32:47;;;;;;;23.30;12.65;;;1.50;99.90;;;;;;5008380;28;20020;-44
2022/01/11 03:35:13;;;;;;;20.80;12.70;;;1.50;99.90;;;;;;5009550;28;20030;-43
2022/01/11 03:37:40;;;;;;;23.13;12.73;;;1.50;99.90;;;;;;5008418;28;20030;-45
2022/01/11 03:40:09;;;;;;;23.77;13.18;;;1.50;99.90;;;;;;5009310;28;20041;-44
2022/01/11 03:42:35;;;;;;;24.40;13.80;;;1.50;99.90;;;;;;5008647;28;20168;-42
2022/01/11 03:45:03;;;;;;;24.85;14.07;;;1.50;99.90;;;;;;5007983;28;20137;-43
2022/01/11 03:47:28;;;;;;;25.55;15.18;;;1.50;99.90;;;;;;5009257;28;20565;-43
2022/01/11 03:49:54;;;;;;;26.10;14.68;;;1.50;99.90;;;;;;5009107;28;20101;-43
2022/01/11 03:52:20;;;;;;;24.02;14.30;;;1.50;99.90;;;;;;5008086;28;20034;-42
2022/01/11 03:57:28;;;;;;;21.55;12.88;;;1.50;99.90;;;;;;5009315;28;20429;-43
2022/01/11 03:59:55;;;;;;;27.23;15.05;;;1.50;99.90;;;;;;5008301;28;20021;-43
2022/01/11 04:02:21;;;;;;;25.88;15.20;;;1.50;99.90;;;;;;5009177;28;20029;-43
2022/01/11 04:04:52;;;;;;;25.38;14.63;;;1.40;99.90;;;;;;5008491;28;20037;-44
2022/01/11 04:07:19;;;;;;;24.33;14.35;;;1.50;99.90;;;;;;5007797;28;20113;-44
2022/01/11 04:09:44;;;;;;;23.13;14.57;;;1.50;99.90;;;;;;5008486;28;20030;-43
2022/01/11 04:12:10;;;;;;;25.65;13.63;;;1.50;99.90;;;;;;5009465;28;20033;-43
2022/01/11 04:14:37;;;;;;;24.40;13.85;;;1.50;99.90;;;;;;5007898;28;20076;-43
2022/01/11 04:17:02;;;;;;;25.63;14.57;;;1.50;99.90;;;;;;4988656;28;20037;-43
2022/01/11 04:19:31;;;;;;;24.25;14.13;;;1.50;99.90;;;;;;5002889;28;20033;-43
2022/01/11 04:21:57;;;;;;;27.30;16.20;;;1.50;99.90;;;;;;5007600;28;20458;-42
2022/01/11 04:24:23;;;;;;;25.88;15.55;;;1.60;99.90;;;;;;5008227;28;20125;-43
2022/01/11 04:26:49;;;;;;;25.15;14.90;;;1.60;99.90;;;;;;5008218;28;20116;-42
2022/01/11 04:29:15;;;;;;;25.88;15.93;;;1.60;99.90;;;;;;5007839;28;20026;-43
2022/01/11 04:31:41;;;;;;;25.75;14.52;;;1.60;99.90;;;;;;5008799;28;20370;-43
2022/01/11 04:34:07;;;;;;;30.25;16.35;;;1.60;99.90;;;;;;5007350;28;20096;-42
2022/01/11 04:36:33;;;;;;;26.90;16.17;;;1.60;99.90;;;;;;5008007;28;20804;-43
2022/01/11 04:38:59;;;;;;;23.90;15.13;;;1.60;99.90;;;;;;5008189;28;20033;-42
2022/01/11 04:41:26;;;;;;;28.85;16.65;;;1.60;99.90;;;;;;5007289;28;20026;-43
2022/01/11 04:43:51;;;;;;;28.25;16.52;;;1.60;99.90;;;;;;5008133;28;20067;-44
2022/01/11 04:46:18;;;;;;;25.67;16.52;;;1.60;99.90;;;;;;5008263;28;20037;-42
2022/01/11 04:48:45;;;;;;;26.58;16.58;;;1.60;99.90;;;;;;5008207;28;20022;-43
2022/01/11 04:51:11;;;;;;;28.85;15.93;;;1.60;99.90;;;;;;5008478;28;20026;-44
2022/01/11 04:53:37;;;;;;;28.65;16.25;;;1.60;99.90;;;;;;5007775;28;20045;-44
2022/01/11 04:56:02;;;;;;;27.20;15.55;;;1.60;99.90;;;;;;5006949;28;20026;-43
2022/01/11 04:58:28;;;;;;;34.05;18.25;;;1.60;99.90;;;;;;5007856;28;20026;-43
2022/01/11 05:00:54;;;;;;;29.73;16.75;;;1.60;99.90;;;;;;5008203;28;20018;-42
2022/01/11 05:03:19;;;;;;;28.67;16.88;;;1.60;99.90;;;;;;5007364;28;20018;-44
2022/01/11 05:05:46;;;;;;;27.35;16.52;;;1.60;99.90;;;;;;5007296;28;20087;-43
2022/01/11 05:08:12;;;;;;;26.00;15.38;;;1.60;99.90;;;;;;5008179;28;20061;-43
2022/01/11 05:10:42;;;;;;;28.88;17.63;;;1.60;99.90;;;;;;5006988;28;20112;-43
2022/01/11 05:13:10;;;;;;;31.23;18.52;;;1.60;99.90;;;;;;5007546;28;20473;-43
2022/01/11 05:15:35;;;;;;;33.72;19.80;;;1.60;99.90;;;;;;5007852;28;20417;-43
2022/01/11 05:18:01;;;;;;;32.20;18.17;;;1.60;99.90;;;;;;5006308;28;20026;-43
2022/01/11 05:20:26;;;;;;;30.05;18.83;;;1.60;99.90;;;;;;5007413;28;20033;-43
2022/01/11 05:22:52;;;;;;;31.30;18.58;;;1.60;99.90;;;;;;5007236;28;20083;-44
2022/01/11 05:25:18;;;;;;;28.65;17.20;;;1.60;99.90;;;;;;5007322;28;20041;-43
2022/01/11 05:27:43;;;;;;;36.45;20.75;;;1.60;99.90;;;;;;5007314;28;20588;-43
2022/01/11 05:30:10;;;;;;;30.92;18.90;;;1.60;99.90;;;;;;5006853;28;20061;-43
2022/01/11 05:32:35;;;;;;;26.80;17.30;;;1.50;99.90;;;;;;5007601;28;20033;-43
2022/01/11 05:35:04;;;;;;;30.92;18.75;;;1.50;99.90;;;;;;5007396;28;20034;-42
2022/01/11 05:37:30;;;;;;;25.10;16.27;;;1.50;99.90;;;;;;5006442;28;20095;-44
2022/01/11 05:39:55;;;;;;;31.75;19.05;;;1.50;99.90;;;;;;5007736;28;20495;-43
2022/01/11 05:42:22;;;;;;;30.63;18.02;;;1.50;99.90;;;;;;5007252;28;20026;-43
2022/01/11 05:44:48;;;;;;;30.13;17.08;;;1.40;99.90;;;;;;5006618;28;20042;-42
2022/01/11 05:47:16;;;;;;;33.15;18.63;;;1.40;99.90;;;;;;5007665;28;20049;-42
2022/01/11 05:49:45;;;;;;;30.15;17.75;;;1.40;99.90;;;;;;5007159;28;20045;-43
2022/01/11 05:52:10;;;;;;;31.05;16.48;;;1.40;99.90;;;;;;5006461;28;20033;-44
2022/01/11 05:54:36;;;;;;;29.73;17.60;;;1.40;99.90;;;;;;5007067;28;20029;-44
2022/01/11 05:57:02;;;;;;;24.83;15.45;;;1.40;99.90;;;;;;5006818;28;20176;-44
2022/01/11 05:59:28;;;;;;;27.80;17.13;;;1.40;99.90;;;;;;5006332;28;20030;-43
2022/01/11 06:01:53;;;;;;;26.27;16.85;;;1.40;99.90;;;;;;5007281;28;20018;-43
2022/01/11 06:04:19;;;;;;;25.80;15.70;;;1.40;99.90;;;;;;5007579;28;20109;-45
2022/01/11 06:06:44;;;;;;;28.15;16.90;;;1.40;99.90;;;;;;5006504;28;20104;-41
2022/01/11 06:09:10;;;;;;;30.02;18.27;;;1.40;99.90;;;;;;5007063;28;20496;-43
2022/01/11 06:11:35;;;;;;;27.02;16.23;;;1.40;99.90;;;;;;5007100;28;20058;-43
2022/01/11 06:14:01;;;;;;;25.40;15.30;;;1.30;99.90;;;;;;5006368;28;20116;-43
2022/01/11 06:16:27;;;;;;;30.45;17.50;;;1.40;99.90;;;;;;5007491;28;20598;-44
2022/01/11 06:18:52;;;;;;;26.77;15.82;;;1.30;99.90;;;;;;5006234;28;20034;-42
2022/01/11 06:21:18;;;;;;;26.85;16.05;;;1.40;99.90;;;;;;5006691;28;20054;-43
2022/01/11 06:23:45;;;;;;;32.55;17.77;;;1.40;99.90;;;;;;5006802;28;20026;-44
2022/01/11 06:26:13;;;;;;;24.73;15.30;;;1.40;99.90;;;;;;5007083;28;20026;-43
2022/01/11 06:28:39;;;;;;;27.42;16.48;;;1.40;99.90;;;;;;5006294;28;20021;-43
2022/01/11 06:31:05;;;;;;;26.55;15.80;;;1.40;99.90;;;;;;5010619;28;20451;-43
2022/01/11 06:33:31;;;;;;;27.40;16.60;;;1.30;99.90;;;;;;5009456;28;20492;-44
2022/01/11 06:35:57;;;;;;;25.33;15.40;;;1.30;99.90;;;;;;5010697;28;20120;-43
2022/01/11 06:38:22;;;;;;;25.90;15.60;;;1.30;99.90;;;;;;5011028;28;20518;-43
2022/01/11 06:40:48;;;;;;;24.55;15.82;;;1.30;99.90;;;;;;5009499;28;20099;-42
2022/01/11 06:43:13;;;;;;;29.17;16.38;;;1.40;99.90;;;;;;5010548;28;20037;-42
2022/01/11 06:45:39;;;;;;;28.33;16.25;;;1.40;99.90;;;;;;5006187;28;20045;-43
2022/01/11 06:48:05;;;;;;;25.70;14.30;;;1.40;99.90;;;;;;5008994;28;20034;-42
2022/01/11 06:50:31;;;;;;;27.50;16.92;;;1.40;99.90;;;;;;4995906;28;20028;-43
2022/01/11 06:52:57;;;;;;;25.25;16.23;;;1.40;99.90;;;;;;5009063;28;20050;-43
2022/01/11 06:55:23;;;;;;;26.45;15.55;;;1.40;99.90;;;;;;5008545;28;20034;-43
2022/01/11 06:57:49;;;;;;;27.38;16.38;;;1.40;99.90;;;;;;5009556;28;20033;-44
2022/01/11 07:00:16;;;;;;;25.38;15.75;;;1.40;99.90;;;;;;5008624;28;20054;-42
2022/01/11 07:02:41;;;;;;;23.00;14.80;;;1.40;99.90;;;;;;5009009;28;20018;-43
2022/01/11 07:05:08;;;;;;;26.38;17.10;;;1.30;99.90;;;;;;5008962;28;20036;-43
2022/01/11 07:07:33;;;;;;;26.48;16.15;;;1.30;99.90;;;;;;5009197;28;20057;-44
2022/01/11 07:09:59;;;;;;;26.77;16.95;;;1.30;99.90;;;;;;5008035;28;20116;-45
2022/01/11 07:12:25;;;;;;;25.10;15.00;;;1.40;99.90;;;;;;5009094;28;20041;-43
2022/01/11 07:14:51;;;;;;;25.20;15.35;;;1.40;99.90;;;;;;5008338;28;20041;-42
2022/01/11 07:17:16;;;;;;;23.85;14.55;;;1.40;99.90;;;;;;5008744;28;20017;-44
2022/01/11 07:19:42;;;;;;;26.02;13.90;;;1.50;99.90;;;;;;5008168;28;20038;-44
2022/01/11 07:22:08;;;;;;;23.63;14.63;;;1.50;99.90;;;;;;5008475;28;20041;-43
2022/01/11 07:24:34;;;;;;;23.27;14.10;;;1.40;99.90;;;;;;5008135;28;20044;-43
2022/01/11 07:27:00;;;;;;;18.40;12.55;;;1.50;99.90;;;;;;5009688;28;20456;-43
2022/01/11 07:29:26;;;;;;;21.50;13.57;;;1.40;99.90;;;;;;5009623;28;20136;-43
2022/01/11 07:31:52;;;;;;;21.63;14.00;;;1.40;99.90;;;;;;5008445;28;20105;-44
2022/01/11 07:34:18;;;;;;;26.75;15.52;;;1.40;99.90;;;;;;4998205;28;20036;-44
2022/01/11 07:36:44;;;;;;;27.95;16.05;;;1.40;99.90;;;;;;4998767;28;20164;-44
2022/01/11 07:39:12;;;;;;;25.38;15.90;;;1.30;99.90;;;;;;5009019;28;20026;-44
2022/01/11 07:41:38;;;;;;;25.08;15.40;;;1.30;99.90;;;;;;5008680;28;20037;-43
2022/01/11 07:44:05;;;;;;;29.25;16.75;;;1.30;99.90;;;;;;5008496;28;20033;-43
2022/01/11 07:46:31;;;;;;;26.88;15.35;;;1.20;99.90;;;;;;5008490;28;20033;-43
2022/01/11 07:48:59;;;;;;;25.83;15.77;;;1.20;99.90;;;;;;5004670;28;20108;-43
2022/01/11 07:51:27;;;;;;;24.08;14.65;;;1.20;99.90;;;;;;5001481;28;20022;-44
2022/01/11 07:53:53;;;;;;;27.27;15.95;;;1.20;99.90;;;;;;4989632;28;20057;-44
2022/01/11 07:56:19;;;;;;;23.55;14.70;;;1.20;99.90;;;;;;5000417;28;20022;-44
2022/01/11 07:58:45;;;;;;;26.60;15.93;;;1.20;99.90;;;;;;5008333;28;20034;-42
2022/01/11 08:01:11;;;;;;;24.65;14.90;;;1.20;99.90;;;;;;5008813;28;20044;-43
2022/01/11 08:03:37;;;;;;;24.38;14.07;;;1.20;99.90;;;;;;5008928;28;20029;-43
2022/01/11 08:06:03;;;;;;;25.67;15.40;;;1.20;99.90;;;;;;5005527;28;20397;-43
2022/01/11 08:08:28;;;;;;;28.00;16.33;;;1.20;99.90;;;;;;5008661;28;20022;-43
2022/01/11 08:10:55;;;;;;;30.40;16.60;;;1.20;99.90;;;;;;5007578;28;20030;-43
2022/01/11 08:13:22;;;;;;;28.70;16.35;;;1.20;99.90;;;;;;5005447;28;20038;-44
2022/01/11 08:15:47;;;;;;;29.40;17.92;;;1.20;99.90;;;;;;5008346;28;20030;-44
2022/01/11 08:18:16;;;;;;;31.17;18.13;;;1.30;99.90;;;;;;5008423;28;20034;-45
2022/01/11 08:20:43;;;;;;;30.77;16.98;;;1.30;99.90;;;;;;5008018;28;20107;-44
2022/01/11 08:23:10;;;;;;;30.60;17.50;;;1.40;99.90;;;;;;5007977;28;20034;-42
2022/01/11 08:25:35;;;;;;;29.73;17.25;;;1.40;99.90;;;;;;4996182;28;20152;-42
2022/01/11 08:28:01;;;;;;;29.48;17.63;;;1.40;99.90;;;;;;5006855;28;20109;-43
2022/01/11 08:30:27;;;;;;;29.30;17.40;;;1.40;99.90;;;;;;4986828;28;20030;-43
2022/01/11 08:32:52;;;;;;;26.00;16.20;;;1.50;99.90;;;;;;4999347;28;20018;-43
2022/01/11 08:35:18;;;;;;;26.63;16.85;;;1.50;99.90;;;;;;5006542;28;20029;-44
2022/01/11 08:37:44;;;;;;;28.63;15.32;;;1.50;99.90;;;;;;5003937;28;20017;-44
2022/01/11 08:40:13;;;;;;;27.52;16.52;;;1.60;99.90;;;;;;5006475;28;20033;-44
2022/01/11 08:42:39;;;;;;;27.42;16.48;;;1.60;99.90;;;;;;5006868;28;20385;-44
2022/01/11 08:45:06;;;;;;;25.95;14.93;;;1.70;99.90;;;;;;5007514;28;20049;-43
2022/01/11 08:47:32;;;;;;;25.23;14.38;;;1.70;99.90;;;;;;5006299;28;20087;-42
2022/01/11 08:49:59;;;;;;;22.58;14.38;;;1.70;99.90;;;;;;5007127;28;20777;-44
2022/01/11 08:52:28;;;;;;;22.48;14.18;;;1.80;99.90;;;;;;5006139;28;20072;-44
2022/01/11 08:54:54;;;;;;;22.15;14.20;;;1.80;99.90;;;;;;5006340;28;20034;-43
2022/01/11 08:57:20;;;;;;;25.40;15.90;;;1.80;99.90;;;;;;5007257;28;20160;-42
2022/01/11 08:59:47;;;;;;;28.20;16.60;;;1.90;99.90;;;;;;5006012;28;20022;-43
2022/01/11 09:02:14;;;;;;;27.88;16.33;;;1.90;99.90;;;;;;5006296;28;20062;-42
2022/01/11 09:04:40;;;;;;;23.15;15.02;;;1.90;99.90;;;;;;5006488;28;20030;-42
2022/01/11 09:07:06;;;;;;;23.27;14.93;;;1.90;99.90;;;;;;5007213;28;20022;-43
2022/01/11 09:09:32;;;;;;;23.00;14.32;;;1.90;99.90;;;;;;5006071;28;20627;-42
2022/01/11 09:12:08;;;;;;;22.00;14.23;;;1.90;99.90;;;;;;5006705;28;20509;-43
2022/01/11 09:14:34;;;;;;;19.30;13.25;;;1.90;99.90;;;;;;5006672;28;20030;-43
2022/01/11 09:17:02;;;;;;;19.52;12.85;;;2.00;99.90;;;;;;5006819;28;20033;-44
2022/01/11 09:19:29;;;;;;;23.67;14.93;;;2.00;99.90;;;;;;5006914;28;20037;-42
2022/01/11 09:21:55;;;;;;;19.25;12.35;;;2.00;99.90;;;;;;5007431;28;20195;-42
2022/01/11 09:24:20;;;;;;;19.63;13.23;;;2.10;99.90;;;;;;5004343;28;20556;-44
2022/01/11 09:26:47;;;;;;;22.25;14.30;;;2.10;99.90;;;;;;5006132;28;20088;-42
2022/01/11 09:29:14;;;;;;;22.08;14.15;;;2.20;99.90;;;;;;5006647;28;20413;-43
2022/01/11 09:31:39;;;;;;;20.33;13.00;;;2.20;99.90;;;;;;5006374;28;20124;-44
2022/01/11 09:34:05;;;;;;;20.30;14.02;;;2.20;99.90;;;;;;5005768;28;20981;-44
2022/01/11 09:36:31;;;;;;;19.75;13.60;;;2.30;99.90;;;;;;5005730;28;20120;-43
2022/01/11 09:38:57;;;;;;;20.63;13.23;;;2.30;99.90;;;;;;5006294;28;20627;-41
2022/01/11 09:41:22;;;;;;;20.00;12.95;;;2.40;99.90;;;;;;5006415;28;20029;-43
2022/01/11 09:43:48;;;;;;;20.40;14.27;;;2.40;99.90;;;;;;4992791;28;20034;-43
2022/01/11 09:46:14;;;;;;;18.88;12.98;;;2.40;99.90;;;;;;5002122;28;20120;-44
2022/01/11 09:48:41;;;;;;;21.40;13.70;;;2.50;99.90;;;;;;4987221;28;20022;-44
2022/01/11 09:51:06;;;;;;;19.92;13.18;;;2.60;99.90;;;;;;5003979;28;20034;-44
2022/01/11 09:53:32;;;;;;;21.00;13.43;;;2.60;99.90;;;;;;5006088;28;20053;-44
2022/01/11 09:56:03;;;;;;;19.08;13.15;;;2.60;99.90;;;;;;5005781;28;20033;-43
2022/01/11 09:58:33;;;;;;;17.65;12.25;;;2.60;99.90;;;;;;4986261;28;20031;-43
2022/01/11 10:00:59;;;;;;;20.33;13.27;;;2.60;99.90;;;;;;5000853;28;20065;-43
2022/01/11 10:03:25;;;;;;;19.40;12.52;;;2.70;99.90;;;;;;5007578;28;20117;-42
2022/01/11 10:05:50;;;;;;;21.02;12.75;;;2.70;99.90;;;;;;5009443;28;20033;-43
2022/01/11 10:08:25;;;;;;;18.95;12.48;;;2.70;99.90;;;;;;5010262;28;20052;-43
2022/01/11 10:10:52;;;;;;;21.05;13.20;;;2.70;99.90;;;;;;5009933;28;20037;-43
2022/01/11 10:13:33;;;;;;;18.83;12.98;;;2.70;99.90;;;;;;5004686;28;20076;-40
2022/01/11 10:16:28;;;;;;;19.42;12.88;;;2.80;99.90;;;;;;5009549;28;20497;-42
2022/01/11 10:18:55;;;;;;;17.95;12.38;;;2.80;99.90;;;;;;5009773;28;20026;-44
2022/01/11 10:21:54;;;;;;;21.13;13.38;;;2.80;99.90;;;;;;5009496;28;20069;-42
2022/01/11 10:24:23;;;;;;;18.17;11.93;;;2.90;99.90;;;;;;4988193;28;20057;-43
2022/01/11 10:26:50;;;;;;;18.63;12.63;;;2.90;99.90;;;;;;5004198;28;20034;-43
2022/01/11 10:29:23;;;;;;;19.02;13.07;;;2.90;99.90;;;;;;5010101;28;20029;-43
2022/01/11 10:31:48;;;;;;;;;;;3.00;99.90;;;;;;5010068;28;20053;-43
2022/01/11 10:34:14;;;;;;;16.27;10.55;;;3.00;99.90;;;;;;5008787;28;19944;-43
2022/01/11 10:36:48;;;;;;;19.95;12.30;;;3.00;99.90;;;;;;5009155;28;20124;-43
2022/01/11 10:39:32;;;;;;;20.13;13.00;;;3.00;99.90;;;;;;5009664;28;20120;-43
2022/01/11 10:41:59;;;;;;;19.38;11.35;;;3.00;99.90;;;;;;5008518;28;20041;-44
2022/01/11 10:44:41;;;;;;;18.38;12.38;;;3.10;99.90;;;;;;5009402;28;20018;-42
2022/01/11 10:47:07;;;;;;;18.67;12.20;;;3.10;99.90;;;;;;5008802;28;20026;-43
2022/01/11 10:49:35;;;;;;;21.17;12.93;;;3.10;99.90;;;;;;5009126;28;20026;-43
2022/01/11 10:52:19;;;;;;;20.33;12.50;;;3.10;99.90;;;;;;5008794;28;20095;-44
2022/01/11 10:54:45;;;;;;;23.42;13.23;;;3.10;99.90;;;;;;5008709;28;20460;-42
2022/01/11 10:57:22;;;;;;;23.25;13.55;;;3.10;99.90;;;;;;5009015;28;20028;-43
2022/01/11 11:00:06;;;;;;;21.00;12.45;;;3.10;99.90;;;;;;5009098;28;20026;-42
2022/01/11 11:02:32;;;;;;;22.17;12.57;;;3.20;99.90;;;;;;5008585;28;20026;-42
2022/01/11 11:04:58;;;;;;;22.13;13.25;;;3.20;99.90;;;;;;5008250;28;20033;-43
2022/01/11 11:07:28;;;;;;;20.67;12.90;;;3.20;99.90;;;;;;5008837;28;20079;-43
2022/01/11 11:09:57;;;;;;;21.92;13.55;;;3.30;99.90;;;;;;5008642;28;20033;-44
2022/01/11 11:12:23;;;;;;;22.55;13.45;;;3.30;99.90;;;;;;5008822;28;20053;-43
2022/01/11 11:14:52;;;;;;;22.73;13.65;;;3.30;99.90;;;;;;5007187;28;20065;-42
2022/01/11 11:17:38;;;;;;;21.85;12.93;;;3.40;99.90;;;;;;5009162;28;20029;-43
2022/01/11 11:20:06;;;;;;;23.20;12.77;;;3.40;99.90;;;;;;4994095;28;20026;-43
2022/01/11 11:22:35;;;;;;;25.63;14.50;;;3.40;99.90;;;;;;5002466;28;20050;-42
2022/01/11 11:25:03;;;;;;;22.10;13.45;;;3.40;99.90;;;;;;4989690;28;20121;-43
2022/01/11 11:27:31;;;;;;;23.17;13.35;;;3.40;99.90;;;;;;5002504;28;20037;-42
2022/01/11 11:29:57;;;;;;;23.27;12.60;;;3.50;99.90;;;;;;5007072;28;20029;-42
2022/01/11 11:32:23;;;;;;;24.45;13.73;;;3.50;99.90;;;;;;5008548;28;20038;-42
2022/01/11 11:34:49;;;;;;;26.42;14.07;;;3.50;99.90;;;;;;5001761;28;20027;-42
2022/01/11 11:37:35;;;;;;;24.02;13.82;;;3.60;99.90;;;;;;4981340;28;20015;-43
2022/01/11 11:40:07;;;;;;;24.35;13.52;;;3.60;99.90;;;;;;4991108;28;20639;-43
2022/01/11 11:42:34;;;;;;;23.90;13.80;;;3.60;99.90;;;;;;4988274;28;20519;-44
2022/01/11 11:45:00;;;;;;;24.05;13.48;;;3.70;99.90;;;;;;5006045;28;20029;-44
2022/01/11 11:47:34;;;;;;;24.42;14.75;;;3.70;99.90;;;;;;5008886;28;20018;-43
2022/01/11 11:50:03;;;;;;;21.52;13.25;;;3.80;99.90;;;;;;5006896;28;20385;-43
2022/01/11 11:52:39;;;;;;;29.67;15.10;;;3.80;99.90;;;;;;5008229;28;20037;-43
2022/01/11 11:55:27;;;;;;;29.92;15.40;;;3.80;99.90;;;;;;5007078;28;20034;-43
2022/01/11 11:57:55;;;;;;;25.35;13.93;;;3.90;99.90;;;;;;5007514;28;20610;-44
2022/01/11 12:00:28;;;;;;;26.23;14.02;;;3.90;99.90;;;;;;5008039;28;20505;-44
2022/01/11 12:03:04;;;;;;;22.98;13.75;;;3.90;99.90;;;;;;5007368;28;20064;-41
2022/01/11 12:05:39;;;;;;;22.42;12.98;;;3.90;99.90;;;;;;4989662;28;20165;-43
2022/01/11 12:08:26;;;;;;;22.42;13.27;;;3.90;99.90;;;;;;4986943;28;20038;-43
2022/01/11 12:10:54;;;;;;;19.33;12.70;;;3.90;99.90;;;;;;4997768;28;20029;-43
2022/01/11 12:13:39;;;;;;;23.67;13.75;;;3.90;99.90;;;;;;4999776;28;20512;-43
2022/01/11 12:16:23;;;;;;;22.85;13.52;;;4.00;99.90;;;;;;4995751;28;20025;-43
2022/01/11 12:18:50;;;;;;;20.38;12.95;;;3.90;99.90;;;;;;4987950;28;20030;-43
2022/01/11 12:21:16;;;;;;;23.88;14.48;;;3.90;99.90;;;;;;5007058;28;20517;-44
2022/01/11 12:23:43;;;;;;;21.27;13.27;;;3.90;99.90;;;;;;5007962;28;20153;-43
2022/01/11 12:26:19;;;;;;;22.40;13.63;;;3.90;99.90;;;;;;5005311;28;20042;-43
2022/01/11 12:29:07;;;;;;;24.75;13.43;;;4.00;99.90;;;;;;5007936;28;20021;-42
2022/01/11 12:31:37;;;;;;;23.40;12.73;;;3.90;99.90;;;;;;5007357;28;20553;-42
2022/01/11 12:34:10;;;;;;;21.38;12.32;;;3.80;99.90;;;;;;5006595;28;20788;-42
2022/01/11 12:37:01;;;;;;;19.85;12.10;;;3.80;99.90;;;;;;5006752;28;20033;-44
2022/01/11 12:39:29;;;;;;;20.27;12.20;;;3.80;99.90;;;;;;5006945;28;20560;-44
2022/01/11 12:41:57;;;;;;;19.50;11.93;;;3.70;99.90;;;;;;5007289;28;20017;-43
2022/01/11 12:44:32;;;;;;;20.10;11.85;;;3.70;99.90;;;;;;5007018;28;20030;-44
2022/01/11 12:47:04;;;;;;;20.05;12.38;;;3.60;99.90;;;;;;5006475;28;20048;-44